createdAt,value
2023-01-21T00:03:59.348Z,50
2023-01-21T00:09:35.758Z,26
2023-01-21T00:15:31.856Z,40
2023-01-21T00:21:07.338Z,48
2023-01-21T00:27:03.150Z,40
2023-01-21T00:32:46.816Z,24
2023-01-21T00:38:21.846Z,8
2023-01-21T00:44:06.676Z,54
2023-01-21T00:50:06.299Z,52
2023-01-21T00:56:28.522Z,31
2023-01-21T01:02:22.926Z,74
2023-01-21T01:08:15.289Z,40
2023-01-21T01:13:56.947Z,20
2023-01-21T01:19:42.539Z,71
2023-01-21T01:25:24.976Z,38
2023-01-21T01:31:09.466Z,16
2023-01-21T01:36:49.201Z,26
2023-01-21T01:42:23.944Z,18
2023-01-21T01:48:40.849Z,35
2023-01-21T01:55:03.620Z,14
2023-01-21T02:00:41.674Z,10
2023-01-21T02:08:12.460Z,18
2023-01-21T02:13:51.456Z,16
2023-01-21T02:19:50.324Z,22
2023-01-21T02:25:25.987Z,2
2023-01-21T02:31:03.278Z,4
2023-01-21T02:36:38.856Z,18
2023-01-21T02:42:14.885Z,8
2023-01-21T02:48:14.410Z,20
2023-01-21T02:55:13.568Z,18
2023-01-21T03:00:58.234Z,22
2023-01-21T03:06:33.893Z,26
2023-01-21T03:12:14.749Z,12
2023-01-21T03:17:53.173Z,24
2023-01-21T03:23:28.725Z,22
2023-01-21T03:29:06.966Z,8
2023-01-21T03:34:45.961Z,4
2023-01-21T03:40:24.819Z,14
2023-01-21T03:46:00.311Z,14
2023-01-21T03:51:36.030Z,2
2023-01-21T03:58:08.774Z,2
2023-01-21T04:03:56.410Z,0
2023-01-21T04:09:53.192Z,4
2023-01-21T04:15:28.862Z,16
2023-01-21T04:21:27.964Z,2
2023-01-21T04:27:45.241Z,8
2023-01-21T04:34:08.122Z,18
2023-01-21T04:40:10.620Z,10
2023-01-21T04:45:46.189Z,4
2023-01-21T04:51:23.608Z,25
2023-01-21T04:57:07.585Z,4
2023-01-21T05:02:52.955Z,2
2023-01-21T05:08:34.275Z,0
2023-01-21T05:14:29.979Z,4
2023-01-21T05:20:06.639Z,6
2023-01-21T05:25:44.639Z,4
2023-01-21T05:31:21.729Z,4
2023-01-21T05:37:19.618Z,13
2023-01-21T05:43:15.524Z,4
2023-01-21T05:49:09.947Z,16
2023-01-21T05:55:40.049Z,6
2023-01-21T06:01:42.049Z,4
2023-01-21T06:07:20.925Z,2
2023-01-21T06:12:59.450Z,6
2023-01-21T06:18:41.764Z,17
2023-01-21T06:24:19.998Z,14
2023-01-21T06:30:16.187Z,4
2023-01-21T06:35:52.618Z,6
2023-01-21T06:41:27.606Z,4
2023-01-21T06:47:03.999Z,17
2023-01-21T06:52:57.275Z,4
2023-01-21T06:58:36.352Z,8
2023-01-21T07:04:20.650Z,6
2023-01-21T07:10:12.196Z,8
2023-01-21T07:16:31.092Z,0
2023-01-21T07:22:28.989Z,2
2023-01-21T07:28:21.984Z,2
2023-01-21T07:33:56.861Z,6
2023-01-21T07:39:31.867Z,6
2023-01-21T07:45:07.379Z,4
2023-01-21T07:50:42.659Z,2
2023-01-21T07:56:17.627Z,4
2023-01-21T08:01:54.755Z,8
2023-01-21T08:07:31.385Z,2
2023-01-21T08:13:06.412Z,14
2023-01-21T08:18:44.795Z,6
2023-01-21T08:24:19.859Z,22
2023-01-21T08:29:54.714Z,12
2023-01-21T08:35:30.252Z,26
2023-01-21T08:41:08.768Z,12
2023-01-21T08:46:44.132Z,12
2023-01-21T08:52:19.419Z,10
2023-01-21T08:57:55.034Z,10
2023-01-21T09:03:34.979Z,29
2023-01-21T09:09:11.167Z,79
2023-01-21T09:14:52.683Z,72
2023-01-21T09:20:28.149Z,60
2023-01-21T09:26:03.844Z,48
2023-01-21T09:31:39.680Z,44
2023-01-21T09:37:15.018Z,44
2023-01-21T09:42:50.966Z,40
2023-01-21T09:48:26.548Z,88
2023-01-21T09:54:02.096Z,60
2023-01-21T09:59:37.622Z,52
2023-01-21T10:05:12.763Z,50
2023-01-21T10:10:48.877Z,50
2023-01-21T10:16:27.377Z,16
2023-01-21T10:22:03.786Z,6
2023-01-21T10:28:11.510Z,14
2023-01-21T10:33:47.317Z,16
2023-01-21T10:39:23.358Z,14
2023-01-21T10:44:58.853Z,12
2023-01-21T10:50:34.714Z,18
2023-01-21T10:56:44.388Z,22
2023-01-21T11:02:41.101Z,20
2023-01-21T11:08:22.168Z,14
2023-01-21T11:14:05.796Z,26
2023-01-21T11:19:47.376Z,46
2023-01-21T11:25:25.740Z,22
2023-01-21T11:31:03.175Z,2
2023-01-21T11:36:47.586Z,2
2023-01-21T11:42:23.557Z,0
2023-01-21T11:48:20.625Z,2
2023-01-21T11:54:03.649Z,0
2023-01-21T11:59:39.747Z,0
2023-01-21T12:05:56.412Z,2
2023-01-21T12:11:32.895Z,4
2023-01-21T12:17:09.381Z,2
2023-01-21T12:22:47.751Z,2
2023-01-21T12:31:50.164Z,2
2023-01-21T12:37:34.281Z,0
2023-01-21T12:43:09.676Z,2
2023-01-21T12:48:44.820Z,2
2023-01-21T12:54:20.601Z,2
2023-01-21T12:59:55.895Z,0
2023-01-21T13:05:51.544Z,0
2023-01-21T13:11:27.075Z,2
2023-01-21T13:17:02.307Z,0
2023-01-21T13:22:43.758Z,0
2023-01-21T13:28:21.474Z,2
2023-01-21T13:33:56.838Z,0
2023-01-21T13:39:34.489Z,0
2023-01-21T13:46:10.762Z,0
2023-01-21T13:51:49.929Z,0
2023-01-21T13:57:33.506Z,0
2023-01-21T14:03:21.115Z,0
2023-01-21T14:08:56.399Z,0
2023-01-21T14:14:34.685Z,0
2023-01-21T14:20:20.827Z,0
2023-01-21T14:26:01.816Z,0
2023-01-21T14:31:37.905Z,0
2023-01-21T14:37:13.007Z,0
2023-01-21T14:42:47.966Z,0
2023-01-21T14:48:28.165Z,2
2023-01-21T14:54:11.142Z,2
2023-01-21T15:00:11.781Z,0
2023-01-21T15:05:54.381Z,2
2023-01-21T15:11:33.617Z,0
2023-01-21T15:17:11.949Z,0
2023-01-21T15:22:47.357Z,0
2023-01-21T15:28:26.374Z,4
2023-01-21T15:34:05.367Z,4
2023-01-21T15:39:43.295Z,0
2023-01-21T15:45:21.873Z,2
2023-01-21T15:50:57.730Z,2
2023-01-21T15:56:48.612Z,0
2023-01-21T16:02:25.291Z,0
2023-01-21T16:08:01.209Z,0
2023-01-21T16:13:43.474Z,7
2023-01-21T16:19:22.278Z,0
2023-01-21T16:24:57.920Z,4
2023-01-21T16:30:47.934Z,2
2023-01-21T16:36:42.221Z,0
2023-01-21T16:42:38.895Z,0
2023-01-21T16:48:39.606Z,0
2023-01-21T16:54:30.344Z,2
2023-01-21T17:00:09.389Z,6
2023-01-21T17:05:45.859Z,4
2023-01-21T17:11:25.177Z,2
2023-01-21T17:17:00.445Z,4
2023-01-21T17:22:35.959Z,2
2023-01-21T17:28:22.923Z,4
2023-01-21T17:33:58.972Z,2
2023-01-21T17:39:34.813Z,6
2023-01-21T17:45:09.931Z,6
2023-01-21T17:50:59.712Z,4
2023-01-21T17:57:05.484Z,6
2023-01-21T18:02:49.803Z,2
2023-01-21T18:08:25.336Z,2
2023-01-21T18:14:00.303Z,4
2023-01-21T18:19:37.129Z,14
2023-01-21T18:25:15.252Z,12
2023-01-21T18:30:53.100Z,10
2023-01-21T18:36:42.366Z,6
2023-01-21T18:42:35.319Z,10
2023-01-21T18:48:32.242Z,30
2023-01-21T18:54:06.285Z,33
2023-01-21T18:59:41.936Z,30
2023-01-21T19:05:27.612Z,6
2023-01-21T19:11:11.564Z,20
2023-01-21T19:16:47.931Z,24
2023-01-21T19:22:52.997Z,26
2023-01-21T19:28:29.127Z,16
2023-01-21T19:34:09.592Z,8
2023-01-21T19:39:45.171Z,10
2023-01-21T19:45:24.061Z,20
2023-01-21T19:51:00.116Z,32
2023-01-21T19:56:44.274Z,12
2023-01-21T20:02:22.744Z,18
2023-01-21T20:08:01.389Z,14
2023-01-21T20:14:00.241Z,14
2023-01-21T20:19:40.542Z,6
2023-01-21T20:25:22.756Z,20
2023-01-21T20:31:29.232Z,22
2023-01-21T20:37:04.822Z,24
2023-01-21T20:42:42.692Z,30
2023-01-21T20:48:18.260Z,34
2023-01-21T20:53:54.150Z,18
2023-01-21T20:59:36.049Z,23
2023-01-21T21:05:11.590Z,12
2023-01-21T21:11:31.442Z,24
2023-01-21T21:17:37.637Z,24
2023-01-21T21:23:14.513Z,24
2023-01-21T21:28:59.666Z,28
2023-01-21T21:34:51.602Z,28
2023-01-21T21:40:29.458Z,14
2023-01-21T21:46:09.637Z,6
2023-01-21T21:51:51.372Z,18
2023-01-21T21:57:28.904Z,26
2023-01-21T22:03:04.419Z,20
2023-01-21T22:08:39.460Z,32
2023-01-21T22:14:35.202Z,14
2023-01-21T22:20:14.216Z,39
2023-01-21T22:25:52.864Z,28
2023-01-21T22:31:29.677Z,26
2023-01-21T22:37:10.055Z,12
2023-01-21T22:42:53.742Z,42
2023-01-21T22:48:51.089Z,35
2023-01-21T22:54:32.643Z,28
2023-01-21T23:00:42.458Z,14
2023-01-21T23:06:31.019Z,20
2023-01-21T23:12:27.760Z,22
2023-01-21T23:18:03.278Z,16
2023-01-21T23:23:38.964Z,16
2023-01-21T23:29:14.246Z,22
2023-01-21T23:34:49.694Z,12
2023-01-21T23:40:24.513Z,24
2023-01-21T23:46:33.088Z,24
2023-01-21T23:52:15.092Z,14
2023-01-21T23:58:20.326Z,14
